Time;durP1;ratioP1;P1;durP2;ratioP2;P2;SDS_P1;SDS_P2;PMS_P1;PMS_P2;Temp;Humidity;BMP_temperature;BMP_pressure;BME280_temperature;BME280_humidity;BME280_pressure;Samples;Min_cycle;Max_cycle;Signal;HPM_P1;HPM_P2
2022/04/22 00:00:37;;;;;;;17.13;6.93;;;10.80;99.90;;;;;;5029877;28;20047;-80
2022/04/22 00:03:04;;;;;;;15.18;7.43;;;10.80;99.90;;;;;;5044178;28;20460;-84
2022/04/22 00:05:30;;;;;;;14.35;7.05;;;10.70;99.90;;;;;;5037040;28;20135;-84
2022/04/22 00:07:56;;;;;;;15.10;6.95;;;10.70;99.90;;;;;;5044601;28;20127;-81
2022/04/22 00:10:22;;;;;;;14.85;7.07;;;10.60;99.90;;;;;;5056080;28;20463;-81
2022/04/22 00:12:48;;;;;;;14.95;7.40;;;10.50;99.90;;;;;;5048446;28;20049;-82
2022/04/22 00:15:13;;;;;;;19.60;7.18;;;10.50;99.90;;;;;;5049501;28;20064;-80
2022/04/22 00:17:40;;;;;;;14.75;7.53;;;10.50;99.90;;;;;;5028191;28;20075;-81
2022/04/22 00:20:08;;;;;;;18.75;7.20;;;10.60;99.90;;;;;;5034313;28;20480;-84
2022/04/22 00:22:37;;;;;;;13.05;7.28;;;10.40;99.90;;;;;;5050183;28;20075;-81
2022/04/22 00:25:03;;;;;;;14.75;7.35;;;10.40;99.90;;;;;;5043591;28;20064;-81
2022/04/22 00:27:29;;;;;;;17.35;7.80;;;10.30;99.90;;;;;;5045985;28;20051;-79
2022/04/22 00:29:54;;;;;;;11.60;6.70;;;10.40;99.90;;;;;;5031057;28;20041;-81
2022/04/22 00:32:20;;;;;;;17.48;7.85;;;10.40;99.90;;;;;;5029555;28;20044;-83
2022/04/22 00:34:46;;;;;;;14.73;7.30;;;10.30;99.90;;;;;;5029331;28;20052;-80
2022/04/22 00:37:11;;;;;;;17.50;7.93;;;10.30;99.90;;;;;;5048314;28;20143;-82
2022/04/22 00:39:37;;;;;;;19.60;8.52;;;10.20;99.90;;;;;;5033036;28;20052;-85
2022/04/22 00:42:10;;;;;;;15.60;7.43;;;10.10;99.90;;;;;;5061459;28;20045;-80
2022/04/22 00:44:37;;;;;;;14.40;8.13;;;10.10;99.90;;;;;;5051851;28;20062;-82
2022/04/22 00:47:03;;;;;;;18.27;7.20;;;10.00;99.90;;;;;;5051532;28;20126;-80
2022/04/22 00:49:29;;;;;;;15.35;7.75;;;10.00;99.90;;;;;;5041730;28;20049;-81
2022/04/22 00:51:55;;;;;;;14.75;7.60;;;9.90;99.90;;;;;;5040553;28;20386;-82
2022/04/22 00:54:21;;;;;;;17.40;7.43;;;9.90;99.90;;;;;;5038971;28;20044;-80
2022/04/22 00:56:50;;;;;;;18.85;7.57;;;9.80;99.90;;;;;;5047508;28;20042;-83
2022/04/22 00:59:16;;;;;;;14.77;7.57;;;9.70;99.90;;;;;;5026512;28;20136;-81
2022/04/22 01:01:45;;;;;;;12.95;6.95;;;9.70;99.90;;;;;;5022567;28;20439;-82
2022/04/22 01:09:57;;;;;;;16.83;7.82;;;9.60;99.90;;;;;;5051591;28;20086;-84
2022/04/22 01:12:25;;;;;;;17.98;8.23;;;9.60;99.90;;;;;;5050825;28;20041;-87
2022/04/22 01:14:51;;;;;;;14.63;7.32;;;9.60;99.90;;;;;;5025455;28;20036;-81
2022/04/22 01:17:16;;;;;;;13.93;6.95;;;9.60;99.90;;;;;;5053539;28;20032;-83
2022/04/22 01:19:45;;;;;;;12.30;6.75;;;9.60;99.90;;;;;;5054155;28;20044;-82
2022/04/22 01:22:11;;;;;;;14.23;7.63;;;9.50;99.90;;;;;;5032192;28;20041;-81
2022/04/22 01:24:37;;;;;;;13.70;7.30;;;9.40;99.90;;;;;;5037277;28;20033;-79
2022/04/22 01:27:04;;;;;;;18.63;7.75;;;9.40;99.90;;;;;;5036547;28;20059;-84
2022/04/22 01:29:29;;;;;;;15.05;6.85;;;9.40;99.90;;;;;;5036201;28;20068;-82
2022/04/22 01:31:55;;;;;;;12.38;6.70;;;9.40;99.90;;;;;;5048052;28;20098;-83
2022/04/22 01:34:21;;;;;;;15.13;7.28;;;9.40;99.90;;;;;;5049615;28;20120;-82
2022/04/22 01:36:46;;;;;;;13.02;7.32;;;9.30;99.90;;;;;;5033528;28;20036;-80
2022/04/22 01:39:13;;;;;;;20.20;7.70;;;9.30;99.90;;;;;;5034750;28;20025;-84
2022/04/22 01:41:39;;;;;;;14.35;7.80;;;9.30;99.90;;;;;;5054286;28;20190;-80
2022/04/22 01:44:05;;;;;;;12.70;6.93;;;9.10;99.90;;;;;;5053170;28;20115;-81
2022/04/22 01:46:31;;;;;;;14.48;7.07;;;9.20;99.90;;;;;;5052593;28;20532;-79
2022/04/22 01:48:58;;;;;;;11.23;6.93;;;9.20;99.90;;;;;;5053387;28;20040;-79
2022/04/22 01:51:23;;;;;;;14.07;7.43;;;9.10;99.90;;;;;;5049137;28;20356;-84
2022/04/22 01:53:49;;;;;;;13.38;6.57;;;9.00;99.90;;;;;;5059424;28;20047;-77
2022/04/22 01:56:15;;;;;;;19.63;7.35;;;9.00;99.90;;;;;;5033557;28;20057;-80
2022/04/22 01:58:42;;;;;;;14.82;6.28;;;9.00;99.90;;;;;;5053963;28;20438;-83
2022/04/22 02:01:11;;;;;;;14.98;6.70;;;9.00;99.90;;;;;;5030653;28;20029;-83
2022/04/22 02:03:37;;;;;;;13.50;6.43;;;9.30;99.90;;;;;;5035166;28;20041;-81
2022/04/22 02:06:04;;;;;;;16.20;6.38;;;9.10;99.90;;;;;;5077987;28;20063;-85
2022/04/22 02:08:31;;;;;;;13.85;7.05;;;8.90;99.90;;;;;;5039025;28;20079;-81
2022/04/22 02:10:56;;;;;;;16.85;6.78;;;8.80;99.90;;;;;;5065962;28;20044;-83
2022/04/22 02:13:22;;;;;;;13.57;6.63;;;8.80;99.90;;;;;;5035179;28;20048;-79
2022/04/22 02:15:48;;;;;;;15.02;6.28;;;8.70;99.90;;;;;;5035014;28;20472;-82
2022/04/22 02:18:14;;;;;;;14.82;6.68;;;8.70;99.90;;;;;;5037314;28;20083;-81
2022/04/22 02:20:39;;;;;;;13.25;6.05;;;8.70;99.90;;;;;;5036085;28;20152;-79
2022/04/22 02:23:05;;;;;;;15.05;6.60;;;8.70;99.90;;;;;;5038290;28;20041;-81
2022/04/22 02:25:31;;;;;;;18.25;6.45;;;8.60;99.90;;;;;;5053806;28;20115;-82
2022/04/22 02:30:41;;;;;;;9.25;5.13;;;9.10;99.90;;;;;;5053681;28;20116;-82
2022/04/22 02:33:06;;;;;;;9.50;6.47;;;8.60;99.90;;;;;;5063805;28;20044;-77
2022/04/22 02:35:32;;;;;;;13.40;6.57;;;8.60;99.90;;;;;;5041502;28;20052;-80
2022/04/22 02:37:58;;;;;;;13.98;6.18;;;8.90;99.90;;;;;;5051093;28;20093;-84
2022/04/22 02:45:52;;;;;;;9.40;6.47;;;8.40;99.90;;;;;;5054266;28;20043;-79
2022/04/22 02:48:18;;;;;;;9.25;6.07;;;8.40;99.90;;;;;;5036370;28;20052;-85
2022/04/22 02:50:44;;;;;;;15.00;7.20;;;8.40;99.90;;;;;;5048416;28;20048;-80
2022/04/22 02:53:09;;;;;;;12.63;6.40;;;8.90;99.90;;;;;;5051446;28;20517;-81
2022/04/22 02:55:38;;;;;;;14.00;6.50;;;8.40;99.90;;;;;;5053520;28;20037;-80
2022/04/22 02:58:05;;;;;;;10.40;6.75;;;8.30;99.90;;;;;;5048846;28;20091;-79
2022/04/22 03:00:31;;;;;;;12.65;6.50;;;8.30;99.90;;;;;;5051087;28;20480;-79
2022/04/22 03:02:57;;;;;;;11.75;6.22;;;8.30;99.90;;;;;;5052255;28;20199;-80
2022/04/22 03:05:22;;;;;;;10.13;6.43;;;8.30;99.90;;;;;;5042224;28;20250;-82
2022/04/22 03:07:48;;;;;;;9.75;6.28;;;8.30;99.90;;;;;;5042823;28;20041;-82
2022/04/22 03:10:13;;;;;;;16.27;6.30;;;8.20;99.90;;;;;;5032058;28;20029;-82
2022/04/22 03:12:39;;;;;;;12.15;6.07;;;8.20;99.90;;;;;;5041782;28;20044;-83
2022/04/22 03:15:05;;;;;;;9.85;5.45;;;8.20;99.90;;;;;;5034890;28;20101;-81
2022/04/22 03:17:31;;;;;;;8.80;4.93;;;8.20;99.90;;;;;;5048581;28;20040;-79
2022/04/22 03:19:57;;;;;;;13.45;6.47;;;8.20;99.90;;;;;;5046281;28;20199;-80
2022/04/22 03:22:22;;;;;;;14.02;6.20;;;8.20;99.90;;;;;;5028927;28;20036;-80
2022/04/22 03:24:48;;;;;;;13.45;6.05;;;8.20;99.90;;;;;;5051564;28;20033;-83
2022/04/22 03:27:14;;;;;;;10.48;5.95;;;8.10;99.90;;;;;;5043470;28;20048;-80
2022/04/22 03:29:40;;;;;;;10.93;6.13;;;8.20;99.90;;;;;;5045019;28;20543;-81
2022/04/22 03:32:06;;;;;;;12.70;6.55;;;8.70;99.90;;;;;;5044697;28;20046;-80
2022/04/22 03:34:32;;;;;;;9.95;5.93;;;8.10;99.90;;;;;;5050965;28;20047;-79
2022/04/22 03:36:59;;;;;;;11.20;6.57;;;8.10;99.90;;;;;;5028654;28;20053;-83
2022/04/22 03:39:25;;;;;;;11.68;6.28;;;8.00;99.90;;;;;;5045807;28;20049;-83
2022/04/22 03:41:51;;;;;;;11.80;5.90;;;8.00;99.90;;;;;;5030303;28;20047;-79
2022/04/22 03:44:17;;;;;;;15.65;6.28;;;8.10;99.90;;;;;;5030826;28;20812;-80
2022/04/22 03:46:43;;;;;;;11.25;5.78;;;8.10;99.90;;;;;;5030309;28;20048;-79
2022/04/22 03:49:09;;;;;;;11.35;6.38;;;8.00;99.90;;;;;;5022269;28;20391;-82
2022/04/22 03:51:36;;;;;;;9.50;5.47;;;8.00;99.90;;;;;;5021708;28;20484;-79
2022/04/22 03:54:02;;;;;;;13.02;6.40;;;7.90;99.90;;;;;;5028284;28;20105;-81
2022/04/22 03:59:13;;;;;;;14.10;6.93;;;7.80;99.90;;;;;;5054873;28;20130;-76
2022/04/22 04:01:39;;;;;;;12.73;6.35;;;7.80;99.90;;;;;;5035068;28;20040;-78
2022/04/22 04:04:04;;;;;;;12.63;6.43;;;7.70;99.90;;;;;;5032943;28;20063;-79
2022/04/22 04:06:30;;;;;;;13.25;6.57;;;7.70;99.90;;;;;;5042309;28;20037;-79
2022/04/22 04:17:09;;;;;;;11.27;6.22;;;7.50;99.90;;;;;;5041439;28;20044;-80
2022/04/22 04:25:03;;;;;;;12.95;6.03;;;7.50;99.90;;;;;;5045945;28;20155;-81
2022/04/22 04:27:29;;;;;;;10.68;5.32;;;7.50;99.90;;;;;;5026343;28;20123;-84
2022/04/22 04:29:55;;;;;;;14.40;5.90;;;7.60;99.90;;;;;;5029587;28;20084;-81
2022/04/22 04:32:21;;;;;;;12.45;6.22;;;8.20;99.90;;;;;;5043129;28;20419;-80
2022/04/22 04:34:47;;;;;;;13.02;5.75;;;7.50;99.90;;;;;;5026554;28;20183;-81
2022/04/22 04:37:13;;;;;;;10.90;6.10;;;8.00;99.90;;;;;;5044961;28;20485;-85
2022/04/22 04:39:40;;;;;;;11.05;5.80;;;7.80;99.90;;;;;;5044448;28;20542;-81
2022/04/22 04:42:07;;;;;;;12.73;5.75;;;7.40;99.90;;;;;;5029302;28;20036;-80
2022/04/22 04:44:33;;;;;;;11.52;6.10;;;7.40;99.90;;;;;;5022754;28;20041;-78
2022/04/22 04:46:58;;;;;;;10.90;5.25;;;7.40;99.90;;;;;;5047290;28;20402;-84
2022/04/22 04:49:27;;;;;;;8.70;5.53;;;7.30;99.90;;;;;;5048658;28;20056;-83
2022/04/22 04:51:53;;;;;;;10.15;5.00;;;7.40;99.90;;;;;;5049531;28;20123;-82
2022/04/22 04:54:19;;;;;;;10.30;5.82;;;7.40;99.90;;;;;;5047577;28;20478;-80
2022/04/22 04:56:45;;;;;;;10.90;5.05;;;7.30;99.90;;;;;;5046231;28;20843;-80
2022/04/22 04:59:10;;;;;;;13.75;5.00;;;7.40;99.90;;;;;;5041987;28;20036;-80
2022/04/22 05:01:37;;;;;;;10.18;5.45;;;7.50;99.90;;;;;;5037303;28;20876;-81
2022/04/22 05:04:03;;;;;;;8.63;5.22;;;7.50;99.90;;;;;;5036478;28;20079;-82
2022/04/22 05:06:30;;;;;;;10.88;4.70;;;7.40;99.90;;;;;;5041815;28;20083;-86
2022/04/22 05:08:56;;;;;;;12.07;5.05;;;7.70;99.90;;;;;;5032036;28;20044;-86
2022/04/22 05:11:22;;;;;;;11.98;5.03;;;7.50;99.90;;;;;;5035747;28;20518;-88
2022/04/22 05:13:48;;;;;;;10.95;4.55;;;7.50;99.90;;;;;;5048986;28;20044;-82
2022/04/22 05:16:14;;;;;;;10.93;4.82;;;7.60;99.90;;;;;;5046927;28;20063;-79
2022/04/22 05:18:40;;;;;;;7.75;4.40;;;8.20;99.90;;;;;;5067764;28;20415;-79
2022/04/22 05:21:06;;;;;;;7.88;4.30;;;7.70;99.90;;;;;;5019913;28;20041;-81
2022/04/22 05:23:32;;;;;;;10.38;4.90;;;7.70;99.90;;;;;;5062916;28;20110;-78
2022/04/22 05:26:03;;;;;;;10.50;3.95;;;7.70;99.90;;;;;;5021459;28;20041;-82
2022/04/22 05:28:35;;;;;;;10.32;4.40;;;7.70;99.90;;;;;;5058647;28;20048;-79
2022/04/22 05:33:45;;;;;;;9.85;4.75;;;7.70;99.90;;;;;;5058661;28;20088;-80
2022/04/22 05:36:10;;;;;;;7.38;4.30;;;7.70;99.90;;;;;;5031954;28;20063;-79
2022/04/22 05:38:36;;;;;;;7.88;4.10;;;7.80;99.90;;;;;;5020485;28;20374;-81
2022/04/22 05:41:02;;;;;;;9.30;4.32;;;7.90;99.90;;;;;;5047574;28;20277;-82
2022/04/22 05:43:28;;;;;;;8.60;3.78;;;7.80;99.90;;;;;;5033918;28;20064;-83
2022/04/22 05:45:54;;;;;;;7.95;3.70;;;7.80;99.90;;;;;;5026961;28;20083;-80
2022/04/22 05:48:20;;;;;;;7.95;3.78;;;7.90;99.90;;;;;;5048467;28;20547;-81
2022/04/22 05:50:45;;;;;;;6.45;3.65;;;8.00;99.90;;;;;;5031345;28;20048;-80
2022/04/22 05:53:11;;;;;;;10.82;4.20;;;8.00;99.90;;;;;;5050825;28;20044;-81
2022/04/22 05:55:37;;;;;;;8.05;4.38;;;8.00;99.90;;;;;;5050707;28;20048;-80
2022/04/22 05:58:03;;;;;;;6.55;3.67;;;8.20;99.90;;;;;;5051596;28;20080;-81
2022/04/22 06:00:38;;;;;;;;;;;8.20;99.90;;;;;;5047074;28;20043;-82
2022/04/22 06:03:04;;;;;;;6.57;3.65;;;8.20;99.90;;;;;;5030564;28;19924;-82
2022/04/22 06:05:32;;;;;;;14.43;3.85;;;8.20;99.90;;;;;;5051717;28;20147;-81
2022/04/22 06:10:53;;;;;;;6.85;3.17;;;8.40;99.90;;;;;;5049108;28;20456;-80
2022/04/22 06:13:18;;;;;;;7.93;3.30;;;8.50;99.90;;;;;;5034919;28;20507;-80
2022/04/22 06:15:45;;;;;;;6.63;3.35;;;8.50;99.90;;;;;;5035746;28;20052;-81
2022/04/22 06:18:10;;;;;;;10.25;3.55;;;8.80;99.90;;;;;;5030297;28;20375;-80
2022/04/22 06:20:36;;;;;;;10.48;3.45;;;8.60;99.90;;;;;;5028253;28;20045;-79
2022/04/22 06:23:02;;;;;;;5.13;2.92;;;9.20;99.90;;;;;;5029737;28;20072;-81
2022/04/22 06:25:28;;;;;;;9.07;3.25;;;8.70;99.90;;;;;;5048028;28;20044;-81
2022/04/22 06:27:54;;;;;;;5.63;2.85;;;8.80;99.90;;;;;;5045556;28;20068;-81
2022/04/22 06:30:21;;;;;;;6.53;2.60;;;8.80;99.90;;;;;;5048992;28;20047;-83
2022/04/22 06:32:49;;;;;;;5.47;2.85;;;8.90;99.90;;;;;;5047979;28;20090;-81
2022/04/22 06:35:18;;;;;;;6.10;3.20;;;9.00;99.90;;;;;;5028183;28;20040;-81
2022/04/22 06:37:46;;;;;;;7.55;3.05;;;9.10;99.90;;;;;;5030129;28;20090;-78
2022/04/22 06:45:47;;;;;;;6.50;2.42;;;9.20;99.90;;;;;;5045803;28;20048;-79
2022/04/22 06:48:29;;;;;;;4.45;2.38;;;9.30;99.90;;;;;;5045505;28;20117;-80
2022/04/22 06:50:59;;;;;;;3.60;2.35;;;9.40;99.90;;;;;;5046435;28;20060;-81
2022/04/22 06:53:25;;;;;;;5.35;3.20;;;9.50;99.90;;;;;;5038218;28;20479;-77
2022/04/22 06:55:55;;;;;;;5.88;2.67;;;9.50;99.90;;;;;;5058317;28;20459;-76
2022/04/22 06:58:21;;;;;;;6.43;2.53;;;9.50;99.90;;;;;;5055029;28;20101;-78
2022/04/22 07:00:48;;;;;;;3.92;2.55;;;9.60;99.90;;;;;;5031116;28;20487;-78
2022/04/22 07:03:16;;;;;;;7.88;3.15;;;9.70;99.90;;;;;;5026275;28;20045;-78
2022/04/22 07:05:43;;;;;;;3.83;2.58;;;9.70;99.90;;;;;;5049288;28;20045;-78
2022/04/22 07:08:14;;;;;;;4.22;2.53;;;9.80;99.90;;;;;;5044541;28;20150;-77
2022/04/22 07:10:50;;;;;;;4.75;2.47;;;9.80;99.90;;;;;;5029712;28;20052;-78
2022/04/22 07:13:17;;;;;;;9.52;2.50;;;9.80;99.90;;;;;;5044122;28;20053;-80
2022/04/22 07:15:47;;;;;;;5.30;2.50;;;9.90;99.90;;;;;;5046101;28;20049;-81
2022/04/22 07:18:13;;;;;;;6.53;2.80;;;9.90;99.90;;;;;;5048065;28;20037;-79
2022/04/22 07:20:40;;;;;;;5.85;2.78;;;10.00;99.90;;;;;;5050218;28;21840;-79
2022/04/22 07:23:06;;;;;;;6.68;3.05;;;10.10;99.90;;;;;;5036239;28;20041;-79
2022/04/22 07:25:32;;;;;;;5.18;3.10;;;10.20;99.90;;;;;;5052119;28;20040;-79
2022/04/22 07:27:59;;;;;;;4.43;2.67;;;10.20;99.90;;;;;;5033237;28;20040;-79
2022/04/22 07:30:25;;;;;;;4.43;2.53;;;10.30;99.90;;;;;;5028865;28;20052;-83
2022/04/22 07:32:51;;;;;;;4.97;3.00;;;10.40;99.90;;;;;;5021287;28;20056;-84
2022/04/22 07:35:19;;;;;;;4.45;2.65;;;10.50;99.90;;;;;;5013825;28;20383;-82
2022/04/22 07:37:46;;;;;;;8.43;2.15;;;10.80;99.90;;;;;;5032520;28;20090;-78
2022/04/22 07:40:14;;;;;;;9.25;2.85;;;11.10;99.90;;;;;;5037623;28;20082;-83
2022/04/22 07:46:46;;;;;;;10.15;2.90;;;11.00;99.90;;;;;;5034247;28;20036;-80
2022/04/22 07:48:12;;;;;;;8.65;3.05;;;10.90;99.90;;;;;;5051556;28;20098;-78
2022/04/22 07:50:38;;;;;;;7.82;3.25;;;10.90;99.90;;;;;;5050083;28;20222;-79
2022/04/22 07:53:05;;;;;;;7.60;2.90;;;10.90;99.90;;;;;;5050349;28;20234;-81
2022/04/22 07:55:31;;;;;;;4.00;2.28;;;10.90;99.90;;;;;;5053392;28;20049;-80
2022/04/22 07:57:57;;;;;;;5.85;3.13;;;10.90;99.90;;;;;;5036390;28;20041;-82
2022/04/22 08:00:24;;;;;;;9.40;3.08;;;11.00;99.90;;;;;;5035420;28;20356;-82
2022/04/22 08:02:49;;;;;;;9.65;2.92;;;11.00;99.90;;;;;;5032690;28;20055;-79
2022/04/22 08:05:15;;;;;;;5.75;2.63;;;11.10;99.90;;;;;;5028982;28;20033;-81
2022/04/22 08:07:41;;;;;;;5.63;2.80;;;11.10;99.90;;;;;;5035027;28;20044;-79
2022/04/22 08:10:08;;;;;;;7.28;3.20;;;11.30;99.90;;;;;;5035739;28;20052;-81
2022/04/22 08:12:34;;;;;;;7.15;2.67;;;11.40;99.90;;;;;;5071593;28;20070;-81
2022/04/22 08:15:01;;;;;;;8.25;2.22;;;11.40;99.90;;;;;;5037993;28;20067;-78
2022/04/22 08:17:27;;;;;;;8.07;2.40;;;11.40;99.90;;;;;;5047352;28;20070;-77
2022/04/22 08:20:24;;;;;;;9.13;3.05;;;12.30;99.90;;;;;;5043788;28;20053;-77
2022/04/22 08:22:50;;;;;;;6.95;2.70;;;11.70;99.90;;;;;;5053213;28;20049;-81
2022/04/22 08:25:15;;;;;;;6.88;3.08;;;11.60;99.90;;;;;;5068680;28;20498;-83
2022/04/22 08:27:41;;;;;;;6.25;2.72;;;11.70;99.90;;;;;;5032180;28;20049;-79
2022/04/22 08:30:08;;;;;;;6.68;2.60;;;11.90;99.90;;;;;;5039968;28;20396;-81
2022/04/22 08:32:34;;;;;;;7.00;3.00;;;11.90;99.90;;;;;;5034627;28;20114;-82
2022/04/22 08:35:00;;;;;;;5.53;2.60;;;11.90;99.90;;;;;;5045172;28;20460;-81
2022/04/22 08:37:26;;;;;;;4.03;2.63;;;11.90;99.90;;;;;;5035081;28;20434;-81
2022/04/22 08:39:51;;;;;;;8.55;2.75;;;12.00;99.90;;;;;;5026950;28;20037;-82
2022/04/22 08:42:23;;;;;;;10.32;2.47;;;12.30;99.90;;;;;;5067929;28;20044;-77
2022/04/22 08:44:49;;;;;;;4.78;2.80;;;12.10;99.90;;;;;;5051074;28;20132;-78
2022/04/22 08:49:59;;;;;;;7.72;3.40;;;12.20;99.90;;;;;;5048147;28;20045;-82
2022/04/22 08:52:33;;;;;;;6.22;2.78;;;12.40;99.90;;;;;;5043359;28;20107;-79
2022/04/22 08:55:00;;;;;;;6.70;3.00;;;12.40;99.90;;;;;;5023661;28;20055;-79
2022/04/22 08:57:27;;;;;;;9.60;3.03;;;12.60;99.90;;;;;;5032029;28;20146;-80
2022/04/22 08:59:57;;;;;;;8.32;2.40;;;12.70;99.90;;;;;;5044002;28;20063;-80
2022/04/22 09:02:23;;;;;;;7.93;3.05;;;12.50;99.90;;;;;;5022964;28;20376;-81
2022/04/22 09:04:49;;;;;;;9.73;2.75;;;12.60;99.90;;;;;;5028054;28;20077;-80
2022/04/22 09:07:18;;;;;;;6.38;2.78;;;12.80;99.90;;;;;;5035583;28;20069;-79
2022/04/22 09:09:50;;;;;;;3.90;2.33;;;12.80;99.90;;;;;;5035338;28;20051;-79
2022/04/22 09:12:19;;;;;;;6.13;3.03;;;12.90;99.90;;;;;;5032560;28;20059;-79
2022/04/22 09:14:49;;;;;;;3.58;2.42;;;12.90;99.90;;;;;;5018705;28;20048;-80
2022/04/22 09:17:34;;;;;;;7.43;2.33;;;12.90;99.90;;;;;;5041728;28;20048;-78
2022/04/22 09:20:03;;;;;;;8.07;2.70;;;12.70;99.90;;;;;;5031486;28;20056;-81
2022/04/22 09:22:36;;;;;;;6.57;3.10;;;13.20;99.90;;;;;;5016820;28;20052;-78
2022/04/22 09:25:05;;;;;;;11.63;3.08;;;13.20;99.90;;;;;;5025512;28;20041;-80
2022/04/22 09:27:36;;;;;;;2.90;2.08;;;13.20;99.90;;;;;;5046724;28;20123;-79
2022/04/22 09:30:05;;;;;;;7.90;2.80;;;13.20;99.90;;;;;;5042392;28;20151;-79
2022/04/22 09:32:39;;;;;;;6.57;2.78;;;13.10;99.90;;;;;;5032842;28;20040;-82
2022/04/22 09:35:16;;;;;;;6.82;2.38;;;13.20;99.90;;;;;;5069396;28;20040;-81
2022/04/22 09:43:23;;;;;;;6.85;2.75;;;13.50;99.90;;;;;;5056997;28;20466;-79
2022/04/22 09:45:53;;;;;;;5.50;2.75;;;13.70;99.90;;;;;;5049265;28;20048;-82
2022/04/22 09:48:20;;;;;;;4.78;2.50;;;13.70;99.90;;;;;;5034083;28;20068;-79
2022/04/22 09:50:54;;;;;;;6.78;2.75;;;13.60;99.90;;;;;;5033725;28;20105;-79
2022/04/22 09:53:33;;;;;;;6.82;3.20;;;13.70;99.90;;;;;;5038736;28;20049;-78
2022/04/22 09:56:06;;;;;;;8.35;2.90;;;13.70;99.90;;;;;;5053484;28;20056;-79
2022/04/22 09:58:31;;;;;;;3.65;2.65;;;13.90;99.90;;;;;;5044971;28;20044;-78
2022/04/22 10:01:01;;;;;;;3.92;2.28;;;13.90;99.90;;;;;;5037764;28;20517;-79
2022/04/22 10:03:29;;;;;;;9.27;2.90;;;14.10;99.90;;;;;;5037175;28;20044;-80
2022/04/22 10:06:33;;;;;;;6.18;2.92;;;14.30;99.90;;;;;;5050480;28;20060;-83
2022/04/22 10:08:58;;;;;;;10.10;2.65;;;14.50;99.90;;;;;;5031201;28;20131;-83
2022/04/22 10:11:31;;;;;;;6.28;2.92;;;14.40;99.90;;;;;;5067953;28;20068;-91
2022/04/22 10:13:59;;;;;;;7.47;2.90;;;14.50;99.90;;;;;;5040993;28;20383;-84
2022/04/22 10:16:27;;;;;;;6.32;2.67;;;14.50;99.90;;;;;;5036288;28;20087;-82
2022/04/22 10:18:53;;;;;;;6.55;2.90;;;14.90;99.90;;;;;;5053376;28;20074;-83
2022/04/22 10:21:20;;;;;;;8.93;3.22;;;14.80;99.90;;;;;;5036688;28;20059;-83
2022/04/22 10:23:48;;;;;;;4.75;3.13;;;15.00;99.90;;;;;;5035140;28;20075;-83
2022/04/22 10:26:15;;;;;;;4.95;2.60;;;15.10;99.90;;;;;;5033397;28;20258;-83
2022/04/22 10:28:43;;;;;;;6.45;3.00;;;15.30;99.90;;;;;;5035385;28;20055;-83
2022/04/22 10:31:09;;;;;;;6.40;3.42;;;15.40;99.90;;;;;;5032339;28;20063;-83
2022/04/22 10:33:40;;;;;;;3.85;2.55;;;15.40;99.90;;;;;;5033273;28;20040;-82
2022/04/22 10:36:06;;;;;;;9.45;2.88;;;15.60;99.90;;;;;;5033371;28;20048;-81
2022/04/22 10:38:41;;;;;;;9.75;3.42;;;15.60;99.90;;;;;;5035616;28;20045;-76
2022/04/22 10:41:20;;;;;;;6.65;2.85;;;15.50;99.90;;;;;;5052583;28;20060;-76
2022/04/22 10:49:16;;;;;;;8.27;3.38;;;15.70;99.90;;;;;;5051410;28;20106;-78
2022/04/22 10:52:13;;;;;;;7.68;3.20;;;16.00;99.90;;;;;;5051443;28;20052;-80
2022/04/22 10:54:51;;;;;;;7.63;3.22;;;16.30;99.90;;;;;;5012180;28;20073;-78
2022/04/22 10:57:18;;;;;;;5.13;2.90;;;16.60;99.90;;;;;;5053304;28;20053;-78
2022/04/22 10:59:44;;;;;;;7.28;3.00;;;16.90;99.90;;;;;;5038673;28;20521;-77
2022/04/22 11:02:33;;;;;;;5.80;3.10;;;17.00;99.90;;;;;;5055306;28;20135;-79
2022/04/22 11:05:37;;;;;;;5.10;2.97;;;17.00;99.90;;;;;;5050850;28;20071;-80
2022/04/22 11:08:07;;;;;;;5.53;3.13;;;17.10;99.90;;;;;;4957160;28;20526;-78
2022/04/22 11:10:53;;;;;;;4.90;2.85;;;17.60;99.90;;;;;;4970662;28;20306;-78
2022/04/22 11:13:46;;;;;;;7.20;3.17;;;17.50;99.90;;;;;;4936038;28;20070;-81
2022/04/22 11:16:30;;;;;;;7.38;2.72;;;17.60;99.90;;;;;;4932802;28;20069;-81
2022/04/22 11:19:17;;;;;;;6.43;2.85;;;17.50;99.90;;;;;;4927236;28;20051;-82
2022/04/22 11:21:44;;;;;;;6.30;3.33;;;17.70;99.90;;;;;;4966856;28;20050;-82
2022/04/22 11:24:20;;;;;;;4.72;3.25;;;17.50;99.90;;;;;;4951590;28;20058;-80
2022/04/22 11:26:47;;;;;;;5.45;2.80;;;17.60;99.90;;;;;;4967204;28;20074;-79
2022/04/22 11:29:16;;;;;;;7.43;3.03;;;17.90;99.90;;;;;;4935437;28;20537;-78
2022/04/22 11:32:12;;;;;;;8.88;3.20;;;18.10;99.90;;;;;;4946989;28;20062;-78
2022/04/22 11:35:06;;;;;;;5.30;3.22;;;17.90;99.90;;;;;;4879530;29;20654;-79
2022/04/22 11:37:33;;;;;;;8.65;3.60;;;18.30;99.90;;;;;;4894525;29;20131;-79
2022/04/22 11:39:59;;;;;;;4.68;2.72;;;17.90;99.90;;;;;;4971469;28;20490;-79
2022/04/22 11:42:27;;;;;;;5.07;3.13;;;18.30;99.90;;;;;;4954862;28;20089;-79
2022/04/22 11:45:11;;;;;;;5.30;3.00;;;18.60;99.60;;;;;;4956374;28;20054;-80
2022/04/22 11:47:37;;;;;;;7.75;2.80;;;18.40;99.60;;;;;;4968547;28;20034;-79
2022/04/22 11:50:04;;;;;;;7.57;2.97;;;18.70;99.90;;;;;;4970894;28;20061;-79
2022/04/22 11:52:29;;;;;;;7.15;3.28;;;18.60;98.00;;;;;;4951536;28;20120;-78
2022/04/22 11:55:02;;;;;;;6.30;3.05;;;18.60;98.50;;;;;;4988331;28;20882;-80
2022/04/22 11:57:37;;;;;;;5.90;3.15;;;18.80;98.20;;;;;;4968382;28;20109;-79
2022/04/22 12:05:51;;;;;;;9.48;3.78;;;19.00;97.10;;;;;;4966283;28;20125;-82
2022/04/22 12:08:18;;;;;;;10.20;3.25;;;18.80;97.90;;;;;;4956828;28;20044;-83
2022/04/22 12:10:48;;;;;;;9.18;3.25;;;19.10;97.50;;;;;;4996383;28;20529;-82
2022/04/22 12:13:15;;;;;;;9.20;3.35;;;19.50;98.10;;;;;;5027520;28;20048;-82
2022/04/22 12:15:46;;;;;;;8.30;3.03;;;19.40;96.30;;;;;;5032661;28;20110;-82
2022/04/22 12:18:32;;;;;;;8.65;3.40;;;19.30;97.10;;;;;;5035361;28;20475;-82
2022/04/22 12:20:58;;;;;;;6.70;3.35;;;19.30;96.50;;;;;;5051236;28;20048;-82
2022/04/22 12:23:39;;;;;;;5.47;3.30;;;19.70;96.60;;;;;;5034156;28;20055;-82
2022/04/22 12:26:12;;;;;;;5.88;3.35;;;19.50;96.20;;;;;;5035040;28;20060;-80
2022/04/22 12:28:54;;;;;;;3.75;2.72;;;19.50;96.90;;;;;;5037488;28;20059;-81
2022/04/22 12:31:24;;;;;;;10.27;3.45;;;19.60;96.10;;;;;;5040555;28;20051;-83
2022/04/22 12:33:59;;;;;;;6.18;3.30;;;20.10;95.30;;;;;;5034341;28;20037;-83
2022/04/22 12:36:25;;;;;;;6.95;3.28;;;20.20;94.60;;;;;;5040335;28;20056;-83
2022/04/22 12:38:51;;;;;;;6.90;3.60;;;20.40;95.20;;;;;;5028531;28;20150;-83
2022/04/22 12:41:18;;;;;;;7.90;3.45;;;20.50;95.00;;;;;;5041418;28;20472;-84
2022/04/22 12:43:48;;;;;;;9.38;3.53;;;20.60;94.50;;;;;;5059348;28;20041;-83
2022/04/22 12:52:08;;;;;;;5.28;3.38;;;20.20;93.90;;;;;;5053642;28;20059;-79
2022/04/22 12:54:35;;;;;;;10.60;3.47;;;20.40;94.60;;;;;;5034188;28;20044;-79
2022/04/22 12:57:00;;;;;;;4.10;3.40;;;20.40;94.50;;;;;;5049220;28;20056;-79
2022/04/22 12:59:49;;;;;;;7.22;3.90;;;20.20;94.30;;;;;;5046107;28;20056;-79
2022/04/22 13:02:15;;;;;;;10.48;3.45;;;20.50;95.30;;;;;;5027795;28;20045;-78
2022/04/22 13:04:59;;;;;;;7.43;4.38;;;20.80;94.40;;;;;;5047842;28;20132;-78
2022/04/22 13:07:36;;;;;;;7.63;3.85;;;20.50;94.60;;;;;;5028640;28;20047;-79
2022/04/22 13:10:04;;;;;;;6.22;4.05;;;20.80;95.20;;;;;;5023942;28;20521;-77
2022/04/22 13:12:29;;;;;;;5.93;4.10;;;20.80;94.40;;;;;;5036457;28;20104;-78
2022/04/22 13:14:56;;;;;;;6.78;4.15;;;20.60;95.60;;;;;;5036458;28;20111;-77
2022/04/22 13:17:24;;;;;;;5.22;3.72;;;21.10;95.60;;;;;;5050756;28;20055;-77
2022/04/22 13:19:50;;;;;;;5.78;3.80;;;20.90;95.40;;;;;;5037216;28;20032;-76
2022/04/22 13:22:16;;;;;;;8.02;3.95;;;21.00;94.00;;;;;;5053813;28;20095;-76
2022/04/22 13:24:44;;;;;;;7.80;4.20;;;20.90;94.20;;;;;;5056217;28;20470;-79
2022/04/22 13:27:14;;;;;;;8.30;3.80;;;20.70;95.20;;;;;;5051870;28;20048;-78
2022/04/22 13:29:40;;;;;;;7.07;4.07;;;20.40;95.60;;;;;;5032671;28;21687;-78
2022/04/22 13:32:07;;;;;;;7.28;3.78;;;20.80;94.90;;;;;;5034796;28;20036;-79
2022/04/22 13:34:34;;;;;;;19.05;4.53;;;21.20;94.90;;;;;;5047086;28;20036;-80
2022/04/22 13:37:00;;;;;;;10.00;4.25;;;21.00;94.90;;;;;;5045579;28;20108;-79
2022/04/22 13:39:25;;;;;;;6.63;4.10;;;21.00;94.90;;;;;;5047461;28;20132;-79
2022/04/22 13:41:51;;;;;;;10.43;4.07;;;21.10;95.50;;;;;;5067861;28;20043;-79
2022/04/22 13:52:21;;;;;;;11.02;4.50;;;20.90;94.60;;;;;;5033193;28;20072;-79
2022/04/22 13:52:32;;;;;;;8.88;3.60;;;21.60;93.60;;;;;;5049664;28;20119;-76
2022/04/22 13:54:57;;;;;;;9.65;3.53;;;21.60;92.40;;;;;;5048117;28;20127;-76
2022/04/22 13:57:23;;;;;;;9.85;4.07;;;22.00;92.10;;;;;;5031805;28;20049;-79
2022/04/22 13:59:48;;;;;;;7.20;3.95;;;22.20;91.70;;;;;;5027989;28;20060;-77
2022/04/22 14:02:16;;;;;;;9.15;4.05;;;21.90;91.70;;;;;;5045547;28;20539;-78
2022/04/22 14:04:43;;;;;;;9.48;4.03;;;22.40;91.50;;;;;;5026973;28;20041;-78
2022/04/22 14:07:08;;;;;;;11.48;4.50;;;22.40;91.40;;;;;;5028356;28;20493;-79
2022/04/22 14:09:35;;;;;;;10.75;4.20;;;22.60;91.50;;;;;;5034647;28;20040;-79